sensor_id;sensor_type;location;lat;lon;timestamp;pressure;altitude;pressure_sealevel;temperature;humidity
42125;BME280;27787;44.594;11.046;2022-12-16T00:01:06;99811.22;;;4.98;100.00
42125;BME280;27787;44.594;11.046;2022-12-16T00:03:54;99809.50;;;5.00;100.00
42125;BME280;27787;44.594;11.046;2022-12-16T00:06:38;99801.66;;;5.00;100.00
42125;BME280;27787;44.594;11.046;2022-12-16T00:09:22;99807.78;;;5.04;100.00
42125;BME280;27787;44.594;11.046;2022-12-16T00:12:07;99798.19;;;5.01;100.00
42125;BME280;27787;44.594;11.046;2022-12-16T00:14:51;99785.94;;;4.97;100.00
42125;BME280;27787;44.594;11.046;2022-12-16T00:17:35;99798.13;;;4.98;100.00
42125;BME280;27787;44.594;11.046;2022-12-16T00:20:19;99796.31;;;4.94;100.00
42125;BME280;27787;44.594;11.046;2022-12-16T00:23:03;99779.69;;;4.89;100.00
42125;BME280;27787;44.594;11.046;2022-12-16T00:25:48;99769.19;;;4.85;100.00
42125;BME280;27787;44.594;11.046;2022-12-16T00:28:33;99785.72;;;4.82;100.00
42125;BME280;27787;44.594;11.046;2022-12-16T00:31:17;99794.44;;;4.84;100.00
42125;BME280;27787;44.594;11.046;2022-12-16T00:34:01;99776.91;;;4.79;100.00
42125;BME280;27787;44.594;11.046;2022-12-16T00:36:45;99784.72;;;4.76;100.00
42125;BME280;27787;44.594;11.046;2022-12-16T00:39:30;99796.94;;;4.78;100.00
42125;BME280;27787;44.594;11.046;2022-12-16T00:42:14;99793.47;;;4.78;100.00
42125;BME280;27787;44.594;11.046;2022-12-16T00:44:59;99800.34;;;4.69;100.00
42125;BME280;27787;44.594;11.046;2022-12-16T00:47:43;99792.34;;;4.60;100.00
42125;BME280;27787;44.594;11.046;2022-12-16T00:50:27;99806.16;;;4.55;100.00
42125;BME280;27787;44.594;11.046;2022-12-16T00:53:11;99806.16;;;4.53;100.00
42125;BME280;27787;44.594;11.046;2022-12-16T00:56:06;99808.84;;;4.56;100.00
42125;BME280;27787;44.594;11.046;2022-12-16T00:58:51;99786.97;;;4.53;100.00
42125;BME280;27787;44.594;11.046;2022-12-16T01:01:35;99790.50;;;4.55;100.00
42125;BME280;27787;44.594;11.046;2022-12-16T01:04:19;99792.28;;;4.57;100.00
42125;BME280;27787;44.594;11.046;2022-12-16T01:07:03;99799.31;;;4.61;100.00
42125;BME280;27787;44.594;11.046;2022-12-16T01:09:47;99803.69;;;4.62;100.00
42125;BME280;27787;44.594;11.046;2022-12-16T01:12:33;99798.47;;;4.62;100.00
42125;BME280;27787;44.594;11.046;2022-12-16T01:15:18;99793.22;;;4.61;100.00
42125;BME280;27787;44.594;11.046;2022-12-16T01:18:02;99798.47;;;4.62;100.00
42125;BME280;27787;44.594;11.046;2022-12-16T01:20:47;99803.66;;;4.61;100.00
42125;BME280;27787;44.594;11.046;2022-12-16T01:23:31;99816.75;;;4.61;100.00
42125;BME280;27787;44.594;11.046;2022-12-16T01:26:16;99808.84;;;4.56;100.00
42125;BME280;27787;44.594;11.046;2022-12-16T01:29:01;99816.69;;;4.58;100.00
42125;BME280;27787;44.594;11.046;2022-12-16T01:31:45;99812.28;;;4.55;100.00
42125;BME280;27787;44.594;11.046;2022-12-16T01:34:29;99815.84;;;4.59;100.00
42125;BME280;27787;44.594;11.046;2022-12-16T01:37:13;99809.72;;;4.58;100.00
42125;BME280;27787;44.594;11.046;2022-12-16T01:39:57;99808.84;;;4.58;100.00
42125;BME280;27787;44.594;11.046;2022-12-16T01:42:43;99797.53;;;4.59;100.00
42125;BME280;27787;44.594;11.046;2022-12-16T01:45:32;99807.84;;;4.50;100.00
42125;BME280;27787;44.594;11.046;2022-12-16T01:51:08;99812.13;;;4.44;100.00
42125;BME280;27787;44.594;11.046;2022-12-16T01:54:01;99828.66;;;4.43;100.00
42125;BME280;27787;44.594;11.046;2022-12-16T01:56:54;99821.91;;;4.56;100.00
42125;BME280;27787;44.594;11.046;2022-12-16T01:59:43;99812.38;;;4.61;100.00
42125;BME280;27787;44.594;11.046;2022-12-16T02:02:30;99809.75;;;4.60;100.00
42125;BME280;27787;44.594;11.046;2022-12-16T02:05:15;99818.50;;;4.62;100.00
42125;BME280;27787;44.594;11.046;2022-12-16T02:35:09;99815.66;;;4.48;100.00
42125;BME280;27787;44.594;11.046;2022-12-16T02:41:04;99802.47;;;4.40;100.00
42125;BME280;27787;44.594;11.046;2022-12-16T02:43:59;99823.31;;;4.37;100.00
42125;BME280;27787;44.594;11.046;2022-12-16T02:46:53;99812.78;;;4.31;100.00
42125;BME280;27787;44.594;11.046;2022-12-16T02:49:45;99810.19;;;4.33;100.00
42125;BME280;27787;44.594;11.046;2022-12-16T02:52:31;99804.94;;;4.31;100.00
42125;BME280;27787;44.594;11.046;2022-12-16T02:55:17;99810.94;;;4.27;100.00
42125;BME280;27787;44.594;11.046;2022-12-16T03:04:13;99814.38;;;4.25;100.00
42125;BME280;27787;44.594;11.046;2022-12-16T03:07:00;99817.91;;;4.27;100.00
42125;BME280;27787;44.594;11.046;2022-12-16T03:09:46;99807.38;;;4.22;100.00
42125;BME280;27787;44.594;11.046;2022-12-16T03:12:32;99786.50;;;4.22;100.00
42125;BME280;27787;44.594;11.046;2022-12-16T03:15:20;99803.00;;;4.21;100.00
42125;BME280;27787;44.594;11.046;2022-12-16T03:18:08;99798.72;;;4.26;100.00
42125;BME280;27787;44.594;11.046;2022-12-16T03:20:57;99806.69;;;4.32;100.00
42125;BME280;27787;44.594;11.046;2022-12-16T03:24:12;99820.69;;;4.37;100.00
42125;BME280;27787;44.594;11.046;2022-12-16T03:27:08;99824.16;;;4.35;100.00
42125;BME280;27787;44.594;11.046;2022-12-16T03:35:52;99826.75;;;4.33;100.00
42125;BME280;27787;44.594;11.046;2022-12-16T03:38:40;99807.66;;;4.39;100.00
42125;BME280;27787;44.594;11.046;2022-12-16T03:41:27;99815.53;;;4.40;100.00
42125;BME280;27787;44.594;11.046;2022-12-16T03:44:11;99807.81;;;4.47;100.00
42125;BME280;27787;44.594;11.046;2022-12-16T03:46:56;99806.91;;;4.46;100.00
42125;BME280;27787;44.594;11.046;2022-12-16T03:49:41;99808.63;;;4.44;100.00
42125;BME280;27787;44.594;11.046;2022-12-16T03:52:25;99809.44;;;4.41;100.00
42125;BME280;27787;44.594;11.046;2022-12-16T03:55:09;99818.97;;;4.38;100.00
42125;BME280;27787;44.594;11.046;2022-12-16T03:57:53;99818.13;;;4.40;100.00
42125;BME280;27787;44.594;11.046;2022-12-16T04:00:37;99824.22;;;4.39;100.00
42125;BME280;27787;44.594;11.046;2022-12-16T04:03:21;99833.78;;;4.39;100.00
42125;BME280;27787;44.594;11.046;2022-12-16T04:06:06;99828.53;;;4.37;100.00
42125;BME280;27787;44.594;11.046;2022-12-16T04:08:50;99842.53;;;4.42;100.00
42125;BME280;27787;44.594;11.046;2022-12-16T04:11:34;99830.34;;;4.41;100.00
42125;BME280;27787;44.594;11.046;2022-12-16T04:14:37;99829.44;;;4.39;100.00
42125;BME280;27787;44.594;11.046;2022-12-16T04:17:40;99838.19;;;4.41;100.00
42125;BME280;27787;44.594;11.046;2022-12-16T04:20:45;99842.53;;;4.42;100.00
42125;BME280;27787;44.594;11.046;2022-12-16T04:23:51;99837.28;;;4.39;100.00
42125;BME280;27787;44.594;11.046;2022-12-16T04:26:55;99839.06;;;4.42;100.00
42125;BME280;27787;44.594;11.046;2022-12-16T04:29:57;99834.75;;;4.44;100.00
42125;BME280;27787;44.594;11.046;2022-12-16T04:33:03;99827.69;;;4.38;100.00
42125;BME280;27787;44.594;11.046;2022-12-16T04:36:08;99836.53;;;4.45;100.00
42125;BME280;27787;44.594;11.046;2022-12-16T04:39:11;99844.34;;;4.43;100.00
42125;BME280;27787;44.594;11.046;2022-12-16T04:42:14;99842.53;;;4.42;100.00
42125;BME280;27787;44.594;11.046;2022-12-16T04:45:16;99833.00;;;4.43;100.00
42125;BME280;27787;44.594;11.046;2022-12-16T04:48:19;99826.88;;;4.42;100.00
42125;BME280;27787;44.594;11.046;2022-12-16T04:51:22;99817.34;;;4.44;100.00
42125;BME280;27787;44.594;11.046;2022-12-16T04:54:25;99812.09;;;4.43;100.00
42125;BME280;27787;44.594;11.046;2022-12-16T04:57:27;99824.22;;;4.39;100.00
42125;BME280;27787;44.594;11.046;2022-12-16T05:00:30;99832.19;;;4.47;100.00
42125;BME280;27787;44.594;11.046;2022-12-16T05:03:34;99821.03;;;4.57;100.00
42125;BME280;27787;44.594;11.046;2022-12-16T05:06:37;99816.75;;;4.62;100.00
42125;BME280;27787;44.594;11.046;2022-12-16T05:09:40;99829.88;;;4.65;100.00
42125;BME280;27787;44.594;11.046;2022-12-16T05:12:43;99825.63;;;4.72;100.00
42125;BME280;27787;44.594;11.046;2022-12-16T05:15:46;99838.75;;;4.77;100.00
42125;BME280;27787;44.594;11.046;2022-12-16T05:18:48;99836.25;;;4.83;100.00
42125;BME280;27787;44.594;11.046;2022-12-16T05:21:51;99858.13;;;4.88;100.00
42125;BME280;27787;44.594;11.046;2022-12-16T05:24:54;99861.66;;;4.91;100.00
42125;BME280;27787;44.594;11.046;2022-12-16T05:27:57;99838.13;;;4.91;100.00
42125;BME280;27787;44.594;11.046;2022-12-16T05:31:00;99836.34;;;4.89;100.00
42125;BME280;27787;44.594;11.046;2022-12-16T05:34:02;99833.72;;;4.89;100.00
42125;BME280;27787;44.594;11.046;2022-12-16T05:37:05;99828.50;;;4.90;100.00
42125;BME280;27787;44.594;11.046;2022-12-16T05:40:09;99844.16;;;4.87;100.00
42125;BME280;27787;44.594;11.046;2022-12-16T05:43:12;99833.84;;;4.95;100.00
42125;BME280;27787;44.594;11.046;2022-12-16T05:46:15;99838.22;;;4.97;100.00
42125;BME280;27787;44.594;11.046;2022-12-16T05:49:18;99848.72;;;5.00;100.00
42125;BME280;27787;44.594;11.046;2022-12-16T05:52:21;99841.03;;;5.10;100.00
42125;BME280;27787;44.594;11.046;2022-12-16T05:55:24;99835.72;;;5.07;100.00
42125;BME280;27787;44.594;11.046;2022-12-16T05:58:27;99838.34;;;5.07;100.00
42125;BME280;27787;44.594;11.046;2022-12-16T06:01:31;99838.34;;;5.07;100.00
42125;BME280;27787;44.594;11.046;2022-12-16T06:04:42;99827.00;;;5.06;100.00
42125;BME280;27787;44.594;11.046;2022-12-16T06:07:52;99820.97;;;5.09;100.00
42125;BME280;27787;44.594;11.046;2022-12-16T06:10:55;99819.25;;;5.11;100.00
42125;BME280;27787;44.594;11.046;2022-12-16T06:13:57;99823.56;;;5.09;100.00
42125;BME280;27787;44.594;11.046;2022-12-16T06:17:00;99825.34;;;5.11;100.00
42125;BME280;27787;44.594;11.046;2022-12-16T06:20:04;99839.31;;;5.13;100.00
42125;BME280;27787;44.594;11.046;2022-12-16T06:23:06;99858.63;;;5.21;100.00
42125;BME280;27787;44.594;11.046;2022-12-16T06:26:09;99847.31;;;5.24;100.00
42125;BME280;27787;44.594;11.046;2022-12-16T06:29:12;99855.13;;;5.21;100.00
42125;BME280;27787;44.594;11.046;2022-12-16T06:32:15;99862.16;;;5.25;100.00
42125;BME280;27787;44.594;11.046;2022-12-16T06:35:18;99867.47;;;5.31;100.00
42125;BME280;27787;44.594;11.046;2022-12-16T06:38:20;99867.47;;;5.32;100.00
42125;BME280;27787;44.594;11.046;2022-12-16T06:41:23;99843.88;;;5.28;100.00
42125;BME280;27787;44.594;11.046;2022-12-16T06:44:26;99868.16;;;5.19;100.00
42125;BME280;27787;44.594;11.046;2022-12-16T06:47:29;99870.00;;;5.23;100.00
42125;BME280;27787;44.594;11.046;2022-12-16T06:50:32;99842.94;;;5.21;100.00
42125;BME280;27787;44.594;11.046;2022-12-16T06:53:35;99896.16;;;5.23;100.00
42125;BME280;27787;44.594;11.046;2022-12-16T06:56:37;99889.22;;;5.27;100.00
42125;BME280;27787;44.594;11.046;2022-12-16T06:59:40;99898.88;;;5.31;100.00
42125;BME280;27787;44.594;11.046;2022-12-16T07:02:43;99895.47;;;5.37;100.00
42125;BME280;27787;44.594;11.046;2022-12-16T07:05:46;99871.91;;;5.35;100.00
42125;BME280;27787;44.594;11.046;2022-12-16T07:08:54;99900.63;;;5.32;100.00
42125;BME280;27787;44.594;11.046;2022-12-16T07:11:57;99911.19;;;5.38;100.00
42125;BME280;27787;44.594;11.046;2022-12-16T07:15:00;99879.78;;;5.37;100.00
42125;BME280;27787;44.594;11.046;2022-12-16T07:18:03;99905.09;;;5.38;100.00
42125;BME280;27787;44.594;11.046;2022-12-16T07:21:06;99911.25;;;5.44;100.00
42125;BME280;27787;44.594;11.046;2022-12-16T07:24:09;99909.44;;;5.39;100.00
42125;BME280;27787;44.594;11.046;2022-12-16T07:27:11;99918.22;;;5.42;100.00
42125;BME280;27787;44.594;11.046;2022-12-16T07:30:14;99917.41;;;5.46;100.00
42125;BME280;27787;44.594;11.046;2022-12-16T07:33:17;99919.09;;;5.43;100.00
42125;BME280;27787;44.594;11.046;2022-12-16T07:36:20;99926.06;;;5.41;100.00
42125;BME280;27787;44.594;11.046;2022-12-16T07:39:23;99913.84;;;5.41;100.00
42125;BME280;27787;44.594;11.046;2022-12-16T07:42:26;99913.88;;;5.43;100.00
42125;BME280;27787;44.594;11.046;2022-12-16T07:45:29;99916.47;;;5.43;100.00
42125;BME280;27787;44.594;11.046;2022-12-16T07:48:32;99927.06;;;5.50;100.00
42125;BME280;27787;44.594;11.046;2022-12-16T07:51:35;99934.09;;;5.53;100.00
42125;BME280;27787;44.594;11.046;2022-12-16T07:54:37;99922.75;;;5.54;100.00
42125;BME280;27787;44.594;11.046;2022-12-16T07:57:40;99930.59;;;5.54;100.00
42125;BME280;27787;44.594;11.046;2022-12-16T08:00:43;99935.81;;;5.52;100.00
42125;BME280;27787;44.594;11.046;2022-12-16T08:03:46;99934.94;;;5.52;100.00
42125;BME280;27787;44.594;11.046;2022-12-16T08:06:49;99955.97;;;5.59;100.00
42125;BME280;27787;44.594;11.046;2022-12-16T08:09:51;99971.75;;;5.62;100.00
42125;BME280;27787;44.594;11.046;2022-12-16T08:12:59;99958.66;;;5.62;100.00
42125;BME280;27787;44.594;11.046;2022-12-16T08:16:02;99955.97;;;5.59;100.00
42125;BME280;27787;44.594;11.046;2022-12-16T08:19:05;99943.72;;;5.55;100.00
42125;BME280;27787;44.594;11.046;2022-12-16T08:22:07;99955.91;;;5.53;100.00
42125;BME280;27787;44.594;11.046;2022-12-16T08:25:10;99942.75;;;5.49;100.00
42125;BME280;27787;44.594;11.046;2022-12-16T08:28:13;99955.72;;;5.41;100.00
42125;BME280;27787;44.594;11.046;2022-12-16T08:31:16;99953.94;;;5.39;100.00
42125;BME280;27787;44.594;11.046;2022-12-16T08:34:19;99960.13;;;5.44;100.00
42125;BME280;27787;44.594;11.046;2022-12-16T08:37:22;99967.09;;;5.43;100.00
42125;BME280;27787;44.594;11.046;2022-12-16T08:40:25;99968.91;;;5.47;100.00
42125;BME280;27787;44.594;11.046;2022-12-16T08:43:32;99960.25;;;5.51;100.00
42125;BME280;27787;44.594;11.046;2022-12-16T08:46:36;99976.88;;;5.55;100.00
42125;BME280;27787;44.594;11.046;2022-12-16T08:49:39;99980.31;;;5.51;99.41
42125;BME280;27787;44.594;11.046;2022-12-16T08:52:42;99992.53;;;5.52;99.79
42125;BME280;27787;44.594;11.046;2022-12-16T08:55:45;99990.78;;;5.52;100.00
42125;BME280;27787;44.594;11.046;2022-12-16T08:58:47;99988.19;;;5.52;100.00
42125;BME280;27787;44.594;11.046;2022-12-16T09:01:50;99983.00;;;5.58;100.00
42125;BME280;27787;44.594;11.046;2022-12-16T09:04:53;99992.72;;;5.64;100.00
42125;BME280;27787;44.594;11.046;2022-12-16T09:08:00;99987.50;;;5.66;100.00
42125;BME280;27787;44.594;11.046;2022-12-16T09:11:03;99987.53;;;5.69;100.00
42125;BME280;27787;44.594;11.046;2022-12-16T09:14:06;99991.84;;;5.65;100.00
42125;BME280;27787;44.594;11.046;2022-12-16T09:17:09;99991.81;;;5.60;100.00
42125;BME280;27787;44.594;11.046;2022-12-16T09:20:12;100009.75;;;5.38;100.00
42125;BME280;27787;44.594;11.046;2022-12-16T09:23:15;99998.25;;;5.28;100.00
42125;BME280;27787;44.594;11.046;2022-12-16T09:26:18;100003.50;;;5.28;100.00
42125;BME280;27787;44.594;11.046;2022-12-16T09:29:21;100004.28;;;5.22;100.00
42125;BME280;27787;44.594;11.046;2022-12-16T09:32:24;100008.53;;;5.17;100.00
42125;BME280;27787;44.594;11.046;2022-12-16T09:35:27;100023.19;;;5.08;100.00
42125;BME280;27787;44.594;11.046;2022-12-16T09:38:30;100026.63;;;5.05;100.00
42125;BME280;27787;44.594;11.046;2022-12-16T09:41:41;100011.91;;;5.09;100.00
42125;BME280;27787;44.594;11.046;2022-12-16T09:48:46;100021.63;;;5.19;100.00
42125;BME280;27787;44.594;11.046;2022-12-16T09:51:53;100023.44;;;5.21;100.00
42125;BME280;27787;44.594;11.046;2022-12-16T09:54:56;100005.13;;;5.21;100.00
42125;BME280;27787;44.594;11.046;2022-12-16T09:58:00;100012.13;;;5.22;100.00
42125;BME280;27787;44.594;11.046;2022-12-16T10:01:04;99999.97;;;5.26;100.00
42125;BME280;27787;44.594;11.046;2022-12-16T10:04:07;99999.97;;;5.26;100.00
42125;BME280;27787;44.594;11.046;2022-12-16T10:07:20;99993.88;;;5.27;100.00
42125;BME280;27787;44.594;11.046;2022-12-16T10:10:26;99993.06;;;5.31;100.00
42125;BME280;27787;44.594;11.046;2022-12-16T10:13:52;99995.66;;;5.29;100.00
42125;BME280;27787;44.594;11.046;2022-12-16T10:17:22;99992.06;;;5.23;100.00
42125;BME280;27787;44.594;11.046;2022-12-16T10:23:42;100017.38;;;5.22;100.00
42125;BME280;27787;44.594;11.046;2022-12-16T10:29:54;100013.97;;;5.29;100.00
42125;BME280;27787;44.594;11.046;2022-12-16T10:32:57;100022.63;;;5.25;100.00
42125;BME280;27787;44.594;11.046;2022-12-16T10:36:02;100012.13;;;5.22;100.00
42125;BME280;27787;44.594;11.046;2022-12-16T10:39:26;100022.69;;;5.30;100.00
42125;BME280;27787;44.594;11.046;2022-12-16T10:42:38;100015.84;;;5.35;100.00
42125;BME280;27787;44.594;11.046;2022-12-16T10:45:46;100028.91;;;5.35;100.00
42125;BME280;27787;44.594;11.046;2022-12-16T10:48:51;100024.56;;;5.36;100.00
42125;BME280;27787;44.594;11.046;2022-12-16T10:52:05;100024.66;;;5.42;100.00
42125;BME280;27787;44.594;11.046;2022-12-16T10:58:57;100022.94;;;5.45;100.00
42125;BME280;27787;44.594;11.046;2022-12-16T11:05:33;100034.44;;;5.53;100.00
42125;BME280;27787;44.594;11.046;2022-12-16T11:08:36;100038.66;;;5.47;100.00
42125;BME280;27787;44.594;11.046;2022-12-16T11:11:39;100041.34;;;5.48;100.00
42125;BME280;27787;44.594;11.046;2022-12-16T11:14:51;100043.00;;;5.45;100.00
42125;BME280;27787;44.594;11.046;2022-12-16T11:18:15;100043.97;;;5.50;100.00
42125;BME280;27787;44.594;11.046;2022-12-16T11:21:20;100037.00;;;5.50;100.00
42125;BME280;27787;44.594;11.046;2022-12-16T11:24:23;100036.09;;;5.48;100.00
42125;BME280;27787;44.594;11.046;2022-12-16T11:27:26;100037.06;;;5.55;100.00
42125;BME280;27787;44.594;11.046;2022-12-16T11:30:29;100035.28;;;5.52;100.00
42125;BME280;27787;44.594;11.046;2022-12-16T11:33:32;100030.06;;;5.54;100.00
42125;BME280;27787;44.594;11.046;2022-12-16T11:36:43;100024.88;;;5.57;100.00
42125;BME280;27787;44.594;11.046;2022-12-16T11:39:47;100027.47;;;5.55;100.00
42125;BME280;27787;44.594;11.046;2022-12-16T11:42:50;100019.59;;;5.54;100.00
42125;BME280;27787;44.594;11.046;2022-12-16T11:45:53;100029.13;;;5.49;100.00
42125;BME280;27787;44.594;11.046;2022-12-16T11:48:59;100032.63;;;5.49;100.00
42125;BME280;27787;44.594;11.046;2022-12-16T11:52:04;100033.56;;;5.53;100.00
42125;BME280;27787;44.594;11.046;2022-12-16T11:55:12;100030.31;;;5.69;100.00
42125;BME280;27787;44.594;11.046;2022-12-16T11:58:22;100021.69;;;5.76;100.00
42125;BME280;27787;44.594;11.046;2022-12-16T12:01:44;100031.41;;;5.85;100.00
42125;BME280;27787;44.594;11.046;2022-12-16T12:04:50;100034.94;;;5.87;100.00
42125;BME280;27787;44.594;11.046;2022-12-16T12:08:00;100029.06;;;6.00;100.00
42125;BME280;27787;44.594;11.046;2022-12-16T12:11:26;100028.41;;;6.16;100.00
42125;BME280;27787;44.594;11.046;2022-12-16T12:14:56;100044.25;;;6.26;100.00
42125;BME280;27787;44.594;11.046;2022-12-16T12:18:33;100044.31;;;6.32;100.00
42125;BME280;27787;44.594;11.046;2022-12-16T12:21:54;100040.00;;;6.35;100.00
42125;BME280;27787;44.594;11.046;2022-12-16T12:25:24;100027.66;;;6.27;100.00
42125;BME280;27787;44.594;11.046;2022-12-16T12:35:55;100018.78;;;6.14;100.00
42125;BME280;27787;44.594;11.046;2022-12-16T12:39:17;100017.97;;;6.22;100.00
42125;BME280;27787;44.594;11.046;2022-12-16T12:42:31;100014.59;;;6.30;100.00
42125;BME280;27787;44.594;11.046;2022-12-16T12:46:02;100008.47;;;6.29;100.00
42125;BME280;27787;44.594;11.046;2022-12-16T12:59:24;100013.94;;;6.49;100.00
42125;BME280;27787;44.594;11.046;2022-12-16T13:05:54;99994.81;;;6.58;100.00
42125;BME280;27787;44.594;11.046;2022-12-16T13:08:58;99999.22;;;6.62;100.00
42125;BME280;27787;44.594;11.046;2022-12-16T13:12:20;100013.22;;;6.62;100.00
42125;BME280;27787;44.594;11.046;2022-12-16T13:15:36;100028.09;;;6.63;100.00
42125;BME280;27787;44.594;11.046;2022-12-16T13:18:39;100035.19;;;6.73;99.35
42125;BME280;27787;44.594;11.046;2022-12-16T13:21:43;100040.41;;;6.70;100.00
42125;BME280;27787;44.594;11.046;2022-12-16T13:24:50;100040.38;;;6.64;100.00
42125;BME280;27787;44.594;11.046;2022-12-16T13:27:55;100033.28;;;6.57;100.00
42125;BME280;27787;44.594;11.046;2022-12-16T13:31:02;100041.19;;;6.63;100.00
42125;BME280;27787;44.594;11.046;2022-12-16T13:34:27;100032.44;;;6.61;100.00
42125;BME280;27787;44.594;11.046;2022-12-16T13:37:30;100040.31;;;6.63;99.89
42125;BME280;27787;44.594;11.046;2022-12-16T13:40:48;100043.03;;;6.69;100.00
42125;BME280;27787;44.594;11.046;2022-12-16T13:43:56;100033.44;;;6.71;100.00
42125;BME280;27787;44.594;11.046;2022-12-16T13:47:00;100038.81;;;6.82;99.50
42125;BME280;27787;44.594;11.046;2022-12-16T13:53:43;100049.50;;;7.03;97.60
42125;BME280;27787;44.594;11.046;2022-12-16T13:56:49;100039.91;;;7.03;98.72
42125;BME280;27787;44.594;11.046;2022-12-16T13:59:54;100053.97;;;7.13;98.20
42125;BME280;27787;44.594;11.046;2022-12-16T14:02:58;100060.16;;;7.18;98.14
42125;BME280;27787;44.594;11.046;2022-12-16T14:06:04;100043.41;;;7.04;97.26
42125;BME280;27787;44.594;11.046;2022-12-16T14:09:46;100045.91;;;6.93;98.26
42125;BME280;27787;44.594;11.046;2022-12-16T14:19:40;100051.16;;;6.92;99.21
42125;BME280;27787;44.594;11.046;2022-12-16T14:22:58;100058.09;;;6.88;100.00
42125;BME280;27787;44.594;11.046;2022-12-16T14:26:03;100062.47;;;6.88;99.34
42125;BME280;27787;44.594;11.046;2022-12-16T14:29:28;100068.53;;;6.84;99.17
42125;BME280;27787;44.594;11.046;2022-12-16T14:32:33;100072.16;;;6.95;98.54
42125;BME280;27787;44.594;11.046;2022-12-16T14:35:48;100073.94;;;6.96;98.77
42125;BME280;27787;44.594;11.046;2022-12-16T14:38:51;100064.28;;;6.95;98.22
42125;BME280;27787;44.594;11.046;2022-12-16T14:41:54;100081.72;;;6.90;97.93
42125;BME280;27787;44.594;11.046;2022-12-16T14:44:56;100086.88;;;6.79;99.57
42125;BME280;27787;44.594;11.046;2022-12-16T14:48:00;100098.97;;;6.68;100.00
42125;BME280;27787;44.594;11.046;2022-12-16T14:54:34;100097.97;;;6.60;100.00
42125;BME280;27787;44.594;11.046;2022-12-16T14:57:37;100107.63;;;6.62;100.00
42125;BME280;27787;44.594;11.046;2022-12-16T15:00:43;100094.53;;;6.64;100.00
42125;BME280;27787;44.594;11.046;2022-12-16T15:03:47;100099.81;;;6.67;100.00
42125;BME280;27787;44.594;11.046;2022-12-16T15:06:52;100101.56;;;6.66;100.00
42125;BME280;27787;44.594;11.046;2022-12-16T15:09:56;100109.38;;;6.63;100.00
42125;BME280;27787;44.594;11.046;2022-12-16T15:12:59;100114.56;;;6.57;100.00
42125;BME280;27787;44.594;11.046;2022-12-16T15:16:02;100118.00;;;6.52;100.00
42125;BME280;27787;44.594;11.046;2022-12-16T15:19:09;100133.56;;;6.41;100.00
42125;BME280;27787;44.594;11.046;2022-12-16T15:22:16;100130.88;;;6.36;100.00
42125;BME280;27787;44.594;11.046;2022-12-16T15:25:24;100127.38;;;6.36;100.00
42125;BME280;27787;44.594;11.046;2022-12-16T15:31:39;100142.19;;;6.32;100.00
42125;BME280;27787;44.594;11.046;2022-12-16T15:34:47;100134.44;;;6.40;100.00
42125;BME280;27787;44.594;11.046;2022-12-16T15:37:50;100139.78;;;6.49;100.00
42125;BME280;27787;44.594;11.046;2022-12-16T15:40:53;100142.56;;;6.60;100.00
42125;BME280;27787;44.594;11.046;2022-12-16T15:43:56;100143.47;;;6.63;100.00
42125;BME280;27787;44.594;11.046;2022-12-16T15:46:59;100140.03;;;6.66;100.00
42125;BME280;27787;44.594;11.046;2022-12-16T15:50:02;100153.16;;;6.67;100.00
42125;BME280;27787;44.594;11.046;2022-12-16T15:53:32;100144.41;;;6.65;100.00
42125;BME280;27787;44.594;11.046;2022-12-16T15:56:44;100161.88;;;6.66;100.00
42125;BME280;27787;44.594;11.046;2022-12-16T15:59:56;100158.41;;;6.69;100.00
42125;BME280;27787;44.594;11.046;2022-12-16T16:03:00;100168.06;;;6.73;100.00
42125;BME280;27787;44.594;11.046;2022-12-16T16:06:03;100171.56;;;6.72;100.00
42125;BME280;27787;44.594;11.046;2022-12-16T16:12:17;100181.19;;;6.73;100.00
42125;BME280;27787;44.594;11.046;2022-12-16T16:15:21;100163.72;;;6.73;100.00
42125;BME280;27787;44.594;11.046;2022-12-16T16:18:23;100161.88;;;6.66;100.00
42125;BME280;27787;44.594;11.046;2022-12-16T16:21:27;100170.53;;;6.59;100.00
42125;BME280;27787;44.594;11.046;2022-12-16T16:24:31;100164.44;;;6.62;100.00
42125;BME280;27787;44.594;11.046;2022-12-16T16:27:34;100156.56;;;6.62;100.00
42125;BME280;27787;44.594;11.046;2022-12-16T16:30:36;100162.66;;;6.61;100.00
42125;BME280;27787;44.594;11.046;2022-12-16T16:33:39;100169.69;;;6.63;100.00
42125;BME280;27787;44.594;11.046;2022-12-16T16:36:42;100167.13;;;6.65;100.00
42125;BME280;27787;44.594;11.046;2022-12-16T16:39:45;100167.06;;;6.63;100.00
42125;BME280;27787;44.594;11.046;2022-12-16T16:42:48;100178.38;;;6.59;100.00
42125;BME280;27787;44.594;11.046;2022-12-16T16:45:53;100177.50;;;6.57;100.00
42125;BME280;27787;44.594;11.046;2022-12-16T16:48:56;100178.34;;;6.55;100.00
42125;BME280;27787;44.594;11.046;2022-12-16T16:51:59;100182.84;;;6.65;100.00
42125;BME280;27787;44.594;11.046;2022-12-16T16:55:04;100173.28;;;6.70;100.00
42125;BME280;27787;44.594;11.046;2022-12-16T16:58:25;100178.41;;;6.61;100.00
42125;BME280;27787;44.594;11.046;2022-12-16T17:01:28;100168.72;;;6.54;100.00
42125;BME280;27787;44.594;11.046;2022-12-16T17:04:31;100179.94;;;6.46;100.00
42125;BME280;27787;44.594;11.046;2022-12-16T17:07:34;100174.66;;;6.43;100.00
42125;BME280;27787;44.594;11.046;2022-12-16T17:10:37;100190.38;;;6.40;100.00
42125;BME280;27787;44.594;11.046;2022-12-16T17:13:40;100203.53;;;6.46;100.00
42125;BME280;27787;44.594;11.046;2022-12-16T17:16:43;100195.84;;;6.57;100.00
42125;BME280;27787;44.594;11.046;2022-12-16T17:19:46;100195.00;;;6.61;100.00
42125;BME280;27787;44.594;11.046;2022-12-16T17:22:49;100193.34;;;6.66;100.00
42125;BME280;27787;44.594;11.046;2022-12-16T17:25:51;100202.13;;;6.68;100.00